createdAt,value
2023-05-03T00:02:24.505Z,7.50
2023-05-03T00:04:53.608Z,7.20
2023-05-03T00:07:22.244Z,6.73
2023-05-03T00:09:50.175Z,8.43
2023-05-03T00:12:17.285Z,8.20
2023-05-03T00:14:45.756Z,8.00
2023-05-03T00:17:13.518Z,8.10
2023-05-03T00:19:40.629Z,8.07
2023-05-03T00:22:07.766Z,7.67
2023-05-03T00:24:35.747Z,7.23
2023-05-03T00:27:07.108Z,7.10
2023-05-03T00:29:34.730Z,6.90
2023-05-03T00:32:02.501Z,7.87
2023-05-03T00:34:29.474Z,7.90
2023-05-03T00:36:56.528Z,7.33
2023-05-03T00:39:23.512Z,8.23
2023-05-03T00:41:50.574Z,8.73
2023-05-03T00:44:17.625Z,9.03
2023-05-03T00:46:44.698Z,8.57
2023-05-03T00:49:11.894Z,9.00
2023-05-03T00:51:39.584Z,9.20
2023-05-03T00:54:06.857Z,9.33
2023-05-03T00:56:47.758Z,10.23
2023-05-03T00:59:18.936Z,9.33
2023-05-03T01:01:55.913Z,9.07
2023-05-03T01:04:23.689Z,8.80
2023-05-03T01:06:59.709Z,8.87
2023-05-03T01:09:40.650Z,8.57
2023-05-03T01:12:44.634Z,8.30
2023-05-03T01:15:20.960Z,8.63
2023-05-03T01:18:09.227Z,8.43
2023-05-03T01:20:37.623Z,8.37
2023-05-03T01:23:54.200Z,8.00
2023-05-03T01:26:27.569Z,8.17
2023-05-03T01:28:55.873Z,7.60
2023-05-03T01:31:49.228Z,7.83
2023-05-03T01:34:36.187Z,8.30
2023-05-03T01:37:04.731Z,7.57
2023-05-03T01:39:51.881Z,8.20
2023-05-03T01:42:20.732Z,8.20
2023-05-03T01:44:49.817Z,7.43
2023-05-03T01:47:17.027Z,8.03
2023-05-03T01:49:43.918Z,7.20
2023-05-03T01:52:11.243Z,8.00
2023-05-03T01:54:38.237Z,7.77
2023-05-03T01:57:05.308Z,8.73
2023-05-03T01:59:32.406Z,9.13
2023-05-03T02:01:59.373Z,8.77
2023-05-03T02:04:26.328Z,8.83
2023-05-03T02:06:55.556Z,8.60
2023-05-03T02:09:23.005Z,8.70
2023-05-03T02:11:51.352Z,9.57
2023-05-03T02:14:18.340Z,9.00
2023-05-03T02:16:45.948Z,9.20
2023-05-03T02:19:12.928Z,9.80
2023-05-03T02:21:39.876Z,9.50
2023-05-03T02:24:07.036Z,8.60
2023-05-03T02:26:34.122Z,8.43
2023-05-03T02:29:01.547Z,8.40
2023-05-03T02:31:29.225Z,7.47
2023-05-03T02:33:56.401Z,7.50
2023-05-03T02:36:23.686Z,8.30
2023-05-03T02:38:50.732Z,7.87
2023-05-03T02:41:21.114Z,7.17
2023-05-03T02:43:48.041Z,7.00
2023-05-03T02:46:15.046Z,7.30
2023-05-03T02:48:42.032Z,7.80
2023-05-03T02:51:08.954Z,7.43
2023-05-03T02:53:35.925Z,8.13
2023-05-03T02:56:03.018Z,8.17
2023-05-03T02:58:30.059Z,7.80
2023-05-03T03:00:57.118Z,7.70
2023-05-03T03:03:24.158Z,7.50
2023-05-03T03:05:51.334Z,8.07
2023-05-03T03:08:18.857Z,7.77
2023-05-03T03:10:45.900Z,6.97
2023-05-03T03:13:12.989Z,8.07
2023-05-03T03:15:40.090Z,8.60
2023-05-03T03:18:09.766Z,7.40
2023-05-03T03:20:36.801Z,7.40
2023-05-03T03:23:03.826Z,7.67
2023-05-03T03:25:31.043Z,7.33
2023-05-03T03:27:57.964Z,7.57
2023-05-03T03:30:24.928Z,7.07
2023-05-03T03:32:52.765Z,6.80
2023-05-03T03:35:20.068Z,7.33
2023-05-03T03:37:47.031Z,7.23
2023-05-03T03:40:14.063Z,7.20
2023-05-03T03:42:41.094Z,6.80
2023-05-03T03:45:08.962Z,7.20
2023-05-03T03:47:35.945Z,7.80
2023-05-03T03:50:03.314Z,7.33
2023-05-03T03:52:30.609Z,6.57
2023-05-03T03:54:57.558Z,6.17
2023-05-03T03:57:26.369Z,6.50
2023-05-03T03:59:53.306Z,6.27
2023-05-03T04:02:21.258Z,5.87
2023-05-03T04:04:48.275Z,5.20
2023-05-03T04:07:15.255Z,5.90
2023-05-03T04:09:42.277Z,6.77
2023-05-03T04:12:09.466Z,6.30
2023-05-03T04:14:36.375Z,6.63
2023-05-03T04:17:04.768Z,6.87
2023-05-03T04:19:32.205Z,7.23
2023-05-03T04:21:59.191Z,6.50
2023-05-03T04:24:30.513Z,6.63
2023-05-03T04:27:01.817Z,7.13
2023-05-03T04:29:28.857Z,7.07
2023-05-03T04:31:56.190Z,7.33
2023-05-03T04:34:23.656Z,6.93
2023-05-03T04:36:50.950Z,6.80
2023-05-03T04:39:17.983Z,7.10
2023-05-03T04:41:45.062Z,6.30
2023-05-03T04:44:12.018Z,7.10
2023-05-03T04:46:39.765Z,5.63
2023-05-03T04:49:06.904Z,6.07
2023-05-03T04:51:33.861Z,6.00
2023-05-03T04:54:00.836Z,5.83
2023-05-03T04:56:27.847Z,5.67
2023-05-03T04:58:54.820Z,7.03
2023-05-03T05:01:28.086Z,6.77
2023-05-03T05:03:58.267Z,6.83
2023-05-03T05:06:26.136Z,6.37
2023-05-03T05:08:53.123Z,6.13
2023-05-03T05:11:20.976Z,7.03
2023-05-03T05:13:48.337Z,7.30
2023-05-03T05:16:15.857Z,6.97
2023-05-03T05:18:43.725Z,6.83
2023-05-03T05:21:10.664Z,6.47
2023-05-03T05:23:37.665Z,6.83
2023-05-03T05:26:04.787Z,6.40
2023-05-03T05:28:32.916Z,6.50
2023-05-03T05:30:59.903Z,6.70
2023-05-03T05:33:26.964Z,6.70
2023-05-03T05:35:54.154Z,6.47
2023-05-03T05:38:21.797Z,6.57
2023-05-03T05:40:48.757Z,6.90
2023-05-03T05:43:15.711Z,6.77
2023-05-03T05:45:42.724Z,6.50
2023-05-03T05:48:09.756Z,6.17
2023-05-03T05:50:36.892Z,6.13
2023-05-03T05:53:03.900Z,6.37
2023-05-03T05:55:30.973Z,6.40
2023-05-03T05:57:57.918Z,6.47
2023-05-03T06:00:25.220Z,6.20
2023-05-03T06:02:52.411Z,5.73
2023-05-03T06:05:20.105Z,6.23
2023-05-03T06:07:47.322Z,6.80
2023-05-03T06:10:14.464Z,6.77
2023-05-03T06:12:41.488Z,6.97
2023-05-03T06:15:08.955Z,6.70
2023-05-03T06:17:36.512Z,6.73
2023-05-03T06:20:04.833Z,6.70
2023-05-03T06:22:32.141Z,6.37
2023-05-03T06:24:59.216Z,6.60
2023-05-03T06:27:26.156Z,6.33
2023-05-03T06:29:55.913Z,7.20
2023-05-03T06:32:23.792Z,7.40
2023-05-03T06:34:50.849Z,7.03
2023-05-03T06:37:17.836Z,7.03
2023-05-03T06:39:44.769Z,7.60
2023-05-03T06:42:11.823Z,6.30
2023-05-03T06:44:38.835Z,7.10
2023-05-03T06:47:05.932Z,6.47
2023-05-03T06:49:33.212Z,7.03
2023-05-03T06:52:00.329Z,6.40
2023-05-03T06:54:27.377Z,6.90
2023-05-03T06:56:54.308Z,5.90
2023-05-03T06:59:21.294Z,6.00
2023-05-03T07:01:48.358Z,6.32
2023-05-03T07:04:15.758Z,6.20
2023-05-03T07:06:55.186Z,6.30
2023-05-03T07:09:35.491Z,7.03
2023-05-03T07:12:10.180Z,6.97
2023-05-03T07:14:38.441Z,7.13
2023-05-03T07:17:05.538Z,7.38
2023-05-03T07:19:32.525Z,6.97
2023-05-03T07:21:59.554Z,7.30
2023-05-03T07:24:26.604Z,7.45
2023-05-03T07:26:58.355Z,7.90
2023-05-03T07:29:26.253Z,8.02
2023-05-03T07:31:53.699Z,8.20
2023-05-03T07:34:21.443Z,8.40
2023-05-03T07:36:48.399Z,8.35
2023-05-03T07:39:15.696Z,8.57
2023-05-03T07:41:42.834Z,8.32
2023-05-03T07:44:09.848Z,9.45
2023-05-03T07:46:36.912Z,8.98
2023-05-03T07:49:05.667Z,9.53
2023-05-03T07:51:39.372Z,9.95
2023-05-03T07:54:09.480Z,10.43
2023-05-03T07:56:36.486Z,9.30
2023-05-03T07:59:09.960Z,9.15
2023-05-03T08:01:38.313Z,9.13
2023-05-03T08:04:05.913Z,8.43
2023-05-03T08:06:35.611Z,9.38
2023-05-03T08:09:04.445Z,9.35
2023-05-03T08:11:31.870Z,10.02
2023-05-03T08:13:58.853Z,9.20
2023-05-03T08:16:26.280Z,9.27
2023-05-03T08:18:53.268Z,9.23
2023-05-03T08:21:22.122Z,9.70
2023-05-03T08:23:49.091Z,9.38
2023-05-03T08:26:16.113Z,9.65
2023-05-03T08:28:43.182Z,9.68
2023-05-03T08:31:10.288Z,9.75
2023-05-03T08:33:37.576Z,9.15
2023-05-03T08:36:04.879Z,10.43
2023-05-03T08:38:32.748Z,10.50
2023-05-03T08:41:31.020Z,10.35
2023-05-03T08:43:59.879Z,10.98
2023-05-03T08:46:28.727Z,10.52
2023-05-03T08:48:56.192Z,11.63
2023-05-03T08:51:25.205Z,11.05
2023-05-03T08:53:52.526Z,10.38
2023-05-03T08:56:42.618Z,12.07
2023-05-03T08:59:11.953Z,11.30
2023-05-03T09:01:41.299Z,11.65
2023-05-03T09:04:10.492Z,10.77
2023-05-03T09:06:38.266Z,11.80
2023-05-03T09:09:08.769Z,10.82
2023-05-03T09:11:38.712Z,12.27
2023-05-03T09:14:17.670Z,12.27
2023-05-03T09:16:47.292Z,11.13
2023-05-03T09:19:16.233Z,11.75
2023-05-03T09:21:47.262Z,10.90
2023-05-03T09:24:20.952Z,10.80
2023-05-03T09:26:51.112Z,11.23
2023-05-03T09:29:32.725Z,11.73
2023-05-03T09:32:02.856Z,10.70
2023-05-03T09:34:29.993Z,11.02
2023-05-03T09:36:57.008Z,12.05
2023-05-03T09:39:24.058Z,10.73
2023-05-03T09:41:51.110Z,11.75
2023-05-03T09:44:18.336Z,11.77
2023-05-03T09:47:07.685Z,11.73
2023-05-03T09:49:36.978Z,11.63
2023-05-03T09:52:04.829Z,11.30
2023-05-03T09:54:31.796Z,11.95
2023-05-03T09:57:00.801Z,10.57
2023-05-03T09:59:28.443Z,11.25
2023-05-03T10:01:59.871Z,11.43
2023-05-03T10:04:28.728Z,12.07
2023-05-03T10:07:04.698Z,11.20
2023-05-03T10:09:45.560Z,11.18
2023-05-03T10:12:16.734Z,11.95
2023-05-03T10:14:48.993Z,11.55
2023-05-03T10:17:46.385Z,10.93
2023-05-03T10:20:37.269Z,11.18
2023-05-03T10:23:12.965Z,10.35
2023-05-03T10:26:07.190Z,11.38
2023-05-03T10:28:34.324Z,11.32
2023-05-03T10:31:02.410Z,11.82
2023-05-03T10:33:32.187Z,11.65
2023-05-03T10:36:01.425Z,11.85
2023-05-03T10:38:29.671Z,11.98
2023-05-03T10:40:57.390Z,12.77
2023-05-03T10:43:32.858Z,11.18
2023-05-03T10:46:11.968Z,11.88
2023-05-03T10:48:38.986Z,11.77
2023-05-03T10:51:28.602Z,11.50
2023-05-03T10:53:55.850Z,12.43
2023-05-03T10:56:24.090Z,11.90
2023-05-03T10:58:51.292Z,11.60
2023-05-03T11:01:19.590Z,11.65
2023-05-03T11:04:10.172Z,11.43
2023-05-03T11:06:41.221Z,11.50
2023-05-03T11:09:10.418Z,12.55
2023-05-03T11:11:41.896Z,11.85
2023-05-03T11:14:10.579Z,11.23
2023-05-03T11:16:41.151Z,10.88
2023-05-03T11:19:11.411Z,11.57
2023-05-03T11:21:38.677Z,10.57
2023-05-03T11:24:06.244Z,10.95
2023-05-03T11:26:39.573Z,11.27
2023-05-03T11:29:06.665Z,11.65
2023-05-03T11:31:35.699Z,11.35
2023-05-03T11:34:02.965Z,11.80
2023-05-03T11:36:31.117Z,11.55
2023-05-03T11:38:58.171Z,10.98
2023-05-03T11:41:25.152Z,11.15
2023-05-03T11:44:00.683Z,10.75
2023-05-03T11:46:37.765Z,10.90
2023-05-03T11:49:05.042Z,12.13
2023-05-03T11:51:32.481Z,11.20
2023-05-03T11:54:16.815Z,11.82
2023-05-03T11:56:54.899Z,11.68
2023-05-03T11:59:35.950Z,11.15
2023-05-03T12:02:04.382Z,11.57
2023-05-03T12:04:32.049Z,11.15
2023-05-03T12:07:00.844Z,10.90
2023-05-03T12:09:29.581Z,11.30
2023-05-03T12:11:58.749Z,11.23
2023-05-03T12:14:26.480Z,10.90
2023-05-03T12:16:56.573Z,11.20
2023-05-03T12:19:32.303Z,10.80
2023-05-03T12:22:21.689Z,10.32
2023-05-03T12:24:49.396Z,10.85
2023-05-03T12:27:18.984Z,10.73
2023-05-03T12:29:47.614Z,11.07
2023-05-03T12:32:15.253Z,11.13
2023-05-03T12:34:42.823Z,10.45
2023-05-03T12:37:11.891Z,11.13
2023-05-03T12:39:40.590Z,11.23
2023-05-03T12:42:09.284Z,10.15
2023-05-03T12:44:42.326Z,9.93
2023-05-03T12:47:11.122Z,9.98
2023-05-03T12:49:39.716Z,9.93
2023-05-03T12:54:41.534Z,9.25
2023-05-03T12:57:15.530Z,9.95
2023-05-03T12:59:47.747Z,9.95
2023-05-03T13:03:19.808Z,11.00
2023-05-03T13:05:14.080Z,11.00
2023-05-03T13:07:55.563Z,11.02
2023-05-03T13:10:24.600Z,9.95
2023-05-03T13:12:51.776Z,9.60
2023-05-03T13:15:18.700Z,10.60
2023-05-03T13:17:47.219Z,10.00
2023-05-03T13:20:15.140Z,10.77
2023-05-03T13:22:42.060Z,10.38
2023-05-03T13:25:09.252Z,10.82
2023-05-03T13:27:36.188Z,9.77
2023-05-03T13:30:05.132Z,9.95
2023-05-03T13:32:33.227Z,10.02
2023-05-03T13:35:00.363Z,10.15
2023-05-03T13:37:27.399Z,9.57
2023-05-03T13:39:54.387Z,9.98
2023-05-03T13:42:21.385Z,10.23
2023-05-03T13:44:48.333Z,10.43
2023-05-03T13:47:15.609Z,10.15
2023-05-03T13:49:42.643Z,9.55
2023-05-03T13:52:11.051Z,10.75
2023-05-03T13:54:38.125Z,10.07
2023-05-03T13:57:05.096Z,9.10
2023-05-03T13:59:32.062Z,9.27
2023-05-03T14:01:59.814Z,9.38
2023-05-03T14:04:27.022Z,9.77
2023-05-03T14:06:53.959Z,9.60
2023-05-03T14:09:21.353Z,10.02
2023-05-03T14:11:48.543Z,10.15
2023-05-03T14:14:15.552Z,9.63
2023-05-03T14:16:42.709Z,9.88
2023-05-03T14:19:12.906Z,10.30
2023-05-03T14:21:42.060Z,10.43
2023-05-03T14:24:09.400Z,9.88
2023-05-03T14:26:37.312Z,10.30
2023-05-03T14:29:05.717Z,10.45
2023-05-03T14:31:34.355Z,10.98
2023-05-03T14:34:01.463Z,11.00
2023-05-03T14:36:36.051Z,10.60
2023-05-03T14:39:04.372Z,10.50
2023-05-03T14:41:33.267Z,10.55
2023-05-03T14:44:01.066Z,11.50
2023-05-03T14:46:29.333Z,10.25
2023-05-03T14:48:56.450Z,11.13
2023-05-03T14:51:24.114Z,11.23
2023-05-03T14:53:51.478Z,10.15
2023-05-03T14:56:18.639Z,11.23
2023-05-03T14:58:45.566Z,10.95
2023-05-03T15:01:20.522Z,12.43
2023-05-03T15:03:47.710Z,11.25
2023-05-03T15:06:15.080Z,10.43
2023-05-03T15:08:42.151Z,10.32
2023-05-03T15:11:09.289Z,10.38
2023-05-03T15:13:36.323Z,11.15
2023-05-03T15:16:03.345Z,10.52
2023-05-03T15:18:30.476Z,9.32
2023-05-03T15:20:57.740Z,9.98
2023-05-03T15:23:24.717Z,9.95
2023-05-03T15:25:51.745Z,9.95
2023-05-03T15:28:18.712Z,9.73
2023-05-03T15:30:45.714Z,9.88
2023-05-03T15:33:13.790Z,8.98
2023-05-03T15:35:41.398Z,9.07
2023-05-03T15:38:09.361Z,10.02
2023-05-03T15:40:36.431Z,10.20
2023-05-03T15:43:03.375Z,10.38
2023-05-03T15:45:31.166Z,9.50
2023-05-03T15:47:58.161Z,9.23
2023-05-03T15:50:25.192Z,9.30
2023-05-03T15:52:52.142Z,8.77
2023-05-03T15:55:20.103Z,10.43
2023-05-03T15:57:47.129Z,9.68
2023-05-03T16:00:16.793Z,10.20
2023-05-03T16:02:43.794Z,9.65
2023-05-03T16:05:11.680Z,9.52
2023-05-03T16:07:38.674Z,9.15
2023-05-03T16:10:06.705Z,8.73
2023-05-03T16:12:34.015Z,9.43
2023-05-03T16:15:01.585Z,9.88
2023-05-03T16:17:28.709Z,9.48
2023-05-03T16:19:55.755Z,9.82
2023-05-03T16:22:22.936Z,9.23
2023-05-03T16:24:50.779Z,10.10
2023-05-03T16:27:17.793Z,9.50
2023-05-03T16:29:44.841Z,9.60
2023-05-03T16:32:12.304Z,9.23
2023-05-03T16:34:39.228Z,9.73
2023-05-03T16:37:06.295Z,9.25
2023-05-03T16:39:33.440Z,10.27
2023-05-03T16:42:01.077Z,9.00
2023-05-03T16:44:28.126Z,9.45
2023-05-03T16:46:55.263Z,9.48
2023-05-03T16:49:22.434Z,10.02
2023-05-03T16:51:49.397Z,10.70
2023-05-03T16:54:16.843Z,10.77
2023-05-03T16:56:44.603Z,10.55
2023-05-03T16:59:11.787Z,10.07
2023-05-03T17:01:38.766Z,10.13
2023-05-03T17:04:06.675Z,9.98
2023-05-03T17:06:33.714Z,9.98
2023-05-03T17:09:01.332Z,9.82
2023-05-03T17:11:28.380Z,10.40
2023-05-03T17:13:55.602Z,10.25
2023-05-03T17:16:23.144Z,9.75
2023-05-03T17:18:50.340Z,9.38
2023-05-03T17:21:19.267Z,9.88
2023-05-03T17:23:47.060Z,9.75
2023-05-03T17:26:14.471Z,10.40
2023-05-03T17:28:44.114Z,10.50
2023-05-03T17:31:11.101Z,10.10
2023-05-03T17:33:38.119Z,9.45
2023-05-03T17:36:05.539Z,9.25
2023-05-03T17:38:36.150Z,9.75
2023-05-03T17:41:06.656Z,8.77
2023-05-03T17:43:37.188Z,9.00
2023-05-03T17:46:12.766Z,8.63
2023-05-03T17:48:44.707Z,8.00
2023-05-03T17:51:14.205Z,9.55
2023-05-03T17:53:42.644Z,9.38
2023-05-03T17:56:18.255Z,8.50
2023-05-03T17:58:46.612Z,8.85
2023-05-03T18:01:15.763Z,8.43
2023-05-03T18:03:43.455Z,8.88
2023-05-03T18:06:13.200Z,7.80
2023-05-03T18:08:41.622Z,8.43
2023-05-03T18:11:09.315Z,7.88
2023-05-03T18:13:36.731Z,8.40
2023-05-03T18:16:07.936Z,8.77
2023-05-03T18:18:34.982Z,8.80
2023-05-03T18:21:04.603Z,8.40
2023-05-03T18:23:33.010Z,8.25
2023-05-03T18:26:00.298Z,8.23
2023-05-03T18:28:27.624Z,7.38
2023-05-03T18:30:55.993Z,7.15
2023-05-03T18:33:23.187Z,6.95
2023-05-03T18:35:52.085Z,7.00
2023-05-03T18:38:21.627Z,6.05
2023-05-03T18:40:50.066Z,7.40
2023-05-03T18:43:17.513Z,6.95
2023-05-03T18:45:44.847Z,6.50
2023-05-03T18:48:12.036Z,6.75
2023-05-03T18:50:39.632Z,6.28
2023-05-03T18:53:06.780Z,6.45
2023-05-03T18:55:33.859Z,6.85
2023-05-03T18:58:01.483Z,6.15
2023-05-03T19:00:28.484Z,6.93
2023-05-03T19:02:55.424Z,6.25
2023-05-03T19:05:22.421Z,6.45
2023-05-03T19:07:49.644Z,6.80
2023-05-03T19:10:17.481Z,6.40
2023-05-03T19:12:44.854Z,7.20
2023-05-03T19:15:12.354Z,7.43
2023-05-03T19:17:42.181Z,7.60
2023-05-03T19:20:13.529Z,7.35
2023-05-03T19:22:40.468Z,7.07
2023-05-03T19:25:08.311Z,7.07
2023-05-03T19:27:35.282Z,7.38
2023-05-03T19:30:02.725Z,8.52
2023-05-03T19:32:30.055Z,7.70
2023-05-03T19:34:57.199Z,7.38
2023-05-03T19:37:24.213Z,7.78
2023-05-03T19:39:51.677Z,8.13
2023-05-03T19:42:18.801Z,8.30
2023-05-03T19:44:45.786Z,7.85
2023-05-03T19:47:12.718Z,8.15
2023-05-03T19:49:40.466Z,8.63
2023-05-03T19:52:08.184Z,8.48
2023-05-03T19:54:35.354Z,8.25
2023-05-03T19:57:08.701Z,9.65
2023-05-03T19:59:35.836Z,8.60
2023-05-03T20:02:03.245Z,8.07
2023-05-03T20:04:30.740Z,8.45
2023-05-03T20:06:57.813Z,8.07
2023-05-03T20:09:25.078Z,8.70
2023-05-03T20:11:58.965Z,8.93
2023-05-03T20:14:29.080Z,9.32
2023-05-03T20:16:57.043Z,9.13
2023-05-03T20:19:25.664Z,8.57
2023-05-03T20:21:52.860Z,8.68
2023-05-03T20:24:21.115Z,8.30
2023-05-03T20:26:48.378Z,8.98
2023-05-03T20:29:15.677Z,9.30
2023-05-03T20:31:42.807Z,8.23
2023-05-03T20:34:09.868Z,8.67
2023-05-03T20:36:37.034Z,8.53
2023-05-03T20:39:05.117Z,8.70
2023-05-03T20:41:32.310Z,8.30
2023-05-03T20:43:59.639Z,9.63
2023-05-03T20:46:26.979Z,8.93
2023-05-03T20:48:54.031Z,8.43
2023-05-03T20:51:21.176Z,9.03
2023-05-03T20:53:48.163Z,9.23
2023-05-03T20:56:15.147Z,8.43
2023-05-03T20:58:42.263Z,8.60
2023-05-03T21:01:09.413Z,8.43
2023-05-03T21:03:36.667Z,8.67
2023-05-03T21:06:05.564Z,8.87
2023-05-03T21:08:32.825Z,9.10
2023-05-03T21:10:59.839Z,8.70
2023-05-03T21:13:26.858Z,8.77
2023-05-03T21:15:55.032Z,8.57
2023-05-03T21:18:22.087Z,7.83
2023-05-03T21:20:49.060Z,9.40
2023-05-03T21:23:16.086Z,8.53
2023-05-03T21:25:43.380Z,8.23
2023-05-03T21:28:10.869Z,8.17
2023-05-03T21:30:38.093Z,8.17
2023-05-03T21:33:05.233Z,8.10
2023-05-03T21:35:32.288Z,8.63
2023-05-03T21:37:59.262Z,8.73
2023-05-03T21:40:27.090Z,8.80
2023-05-03T21:42:54.123Z,8.67
2023-05-03T21:45:21.428Z,8.10
2023-05-03T21:47:48.834Z,8.40
2023-05-03T21:50:15.953Z,7.47
2023-05-03T21:52:43.025Z,8.57
2023-05-03T21:55:10.292Z,8.47
2023-05-03T21:57:37.965Z,8.30
2023-05-03T22:00:06.263Z,8.10
2023-05-03T22:02:33.494Z,8.80
2023-05-03T22:05:00.450Z,9.17
2023-05-03T22:07:27.756Z,8.40
2023-05-03T22:09:54.867Z,9.13
2023-05-03T22:12:24.283Z,9.30
2023-05-03T22:14:52.065Z,8.93
2023-05-03T22:17:19.485Z,9.20
2023-05-03T22:19:46.438Z,8.30
2023-05-03T22:22:13.417Z,9.03
2023-05-03T22:24:41.228Z,8.57
2023-05-03T22:27:08.249Z,9.00
2023-05-03T22:29:35.331Z,9.00
2023-05-03T22:32:03.017Z,8.57
2023-05-03T22:34:30.097Z,8.47
2023-05-03T22:36:57.158Z,8.97
2023-05-03T22:39:24.198Z,9.17
2023-05-03T22:41:51.166Z,8.40
2023-05-03T22:44:18.135Z,8.73
2023-05-03T22:46:45.308Z,8.10
2023-05-03T22:49:12.237Z,8.50
2023-05-03T22:51:39.274Z,8.53
2023-05-03T22:54:07.099Z,8.20
2023-05-03T22:56:34.128Z,8.47
2023-05-03T22:59:01.122Z,9.23
2023-05-03T23:01:28.489Z,8.73
2023-05-03T23:03:56.732Z,9.20
2023-05-03T23:06:27.352Z,8.60
2023-05-03T23:08:54.328Z,9.27
2023-05-03T23:11:21.565Z,8.33
2023-05-03T23:13:48.831Z,8.87
2023-05-03T23:16:15.773Z,8.83
2023-05-03T23:18:42.972Z,9.37
2023-05-03T23:21:10.165Z,8.67
2023-05-03T23:23:37.411Z,9.60
2023-05-03T23:26:04.517Z,9.27
2023-05-03T23:28:32.783Z,9.20
2023-05-03T23:31:00.306Z,8.97
2023-05-03T23:33:27.845Z,9.70
2023-05-03T23:35:55.141Z,8.50
2023-05-03T23:38:22.099Z,9.70
2023-05-03T23:40:49.238Z,10.13
2023-05-03T23:43:16.213Z,8.53
2023-05-03T23:45:43.373Z,9.83
2023-05-03T23:48:10.430Z,9.53
2023-05-03T23:50:37.420Z,9.07
2023-05-03T23:53:05.168Z,9.87
2023-05-03T23:55:32.287Z,9.10
2023-05-03T23:57:59.202Z,9.07
